Hovedside
METAR-TAF:

METAR-TAF

Lufthavner :

Hanamaki, Japan

breddegrad: 39-26N, lengdegrad: 141-08E, høyde over havet: 90 m

Gjeldene værobservasjon

Denne rapporten ble laget for 6 timer og 4 minutter siden, klokken 10:00 UTC
Vind 4 kt fra Sørvest
Temperatur -1°C
Luftfuktighet 86%
Trykk 1019 hPa
Sikt 10 km eller mer
Få skyer i en høyde av 1000 ft
Spredte skyer i en høyde av 4000 ft
byger på avstand,

METAR: RJSI 041000Z 22004KT 9999 VCSH FEW010 SCT040 M01/M03 Q1019

Tid: 01:04 (16:04 UTC)

Varsel

Denne rapporten ble laget for 4 timer og 59 minutter siden, klokken 11:05 UTC
Varsel gyldig fra 04. klokken 12 UTC til 05. klokken 18 UTC
Vind 4 kt fra Nord
Sikt 10 km eller mer
Få skyer i en høyde av 2000 ft
Brutte skyer i en høyde av 4000 ft
Blir
fra 04. klokken 19 UTC til 04. klokken 21 UTC
Vind 5 kt fra Sør
Blir
fra 05. klokken 09 UTC til 05. klokken 12 UTC
Vind 5 kt fra Nord

TAF: RJSI 041105Z 0412/0518 01004KT 9999 FEW020 BKN040 BECMG 0419/0421 18005KT BECMG 0509/0512 36005KT

Værobservasjoner og værvarsel for over 4000 flyplasser (METAR- og TAF-rapporter).

Tilgjengelige stasjoner er representert av de røde og gule prikkene på kartet.

Hold musepekeren over prikken for å se navnet på stasjonen.

Klikk så for å se værobservasjoner og -varsler.

For å forandre kartet kan du klikke på den grønne knappen med svart kryss for å zoome inn, på den grønne knappen med strek for å zoome ut, eller på de grønne pilene for å se tilstøtende kart.


METAR-TAF: